Ana Sayfa
METAR-TAF:

METAR-TAF

Havaalanları :

Florianópolis, Santa Catarina, Brezilya

Enlem: 27-40S, Boylam: 048-33W, yükseklik: 5 m

Güncel hava durumu gözlemi

Rapor saat 20:00 UTC de 20 dakika önce yapıldı.
Rüzgar kuzeydan 7 kt
Sıcaklık 24°C
Nem 78%
Basınç 1011 hPa
Görüş mesafesi 10 km veya daha fazla
1500 m altında bulut yok ve kümülonimbus yok

METAR: SBFL 222000Z 36007KT CAVOK 24/20 Q1011

Saat: 17:20 (20:20 UTC)

Tahmin

Rapor saat 15:00 UTC de 5 saat ve 20 dakika önce yapıldı.
Ayın 22'si saat 18 UTC'den ayın 23'si saat 18 UTC'ye kadar geçerli Tahmin
Rüzgar kuzeydan 10 kt
Görüş mesafesi 10 km veya daha fazla
1500 m altında bulut yok ve kümülonimbus yok

TAF: SBFL 221500Z 2218/2318 36010KT CAVOK TX29/2218Z TN20/2308Z RMK PD J

4.000'den fazla havaalanı için hava durumu gözlemleri ve tahminleri (METAR ve TAF raporları).

Kullanılabilir istasyonlar harita üzerinde sarı ve kırmızı noktalarla gösterilir.

İstasyonun adını görmek için fareyi noktanın üzerinde gezdirin.

Sonrasında hava gözlem ve tahminlerini görmek için tıklayın.

Haritayı değiştirmek için: yaklaştırmak için siyah artı işaretli yeşil düğmeye ve uzaklaştırmak için de eksi işaretli düğmeye hızla tıklayın; bitişik haritalar için yeşil okları kullanın.


METAR-TAF: